createdAt,value
2019-04-06T00:02:17.767Z,36.58
2019-04-06T00:05:06.581Z,37.60
2019-04-06T00:07:35.025Z,41.33
2019-04-06T00:10:04.509Z,38.85
2019-04-06T00:12:32.957Z,45.38
2019-04-06T00:15:01.501Z,48.42
2019-04-06T00:17:29.945Z,37.17
2019-04-06T00:19:58.413Z,38.05
2019-04-06T00:22:26.829Z,42.50
2019-04-06T00:24:55.595Z,44.60
2019-04-06T00:27:24.714Z,40.63
2019-04-06T00:29:53.595Z,40.05
2019-04-06T00:32:32.690Z,37.15
2019-04-06T00:35:01.149Z,39.78
2019-04-06T00:37:29.570Z,35.80
2019-04-06T00:39:57.993Z,40.20
2019-04-06T00:42:26.423Z,36.58
2019-04-06T00:44:54.849Z,42.80
2019-04-06T00:47:23.289Z,43.38
2019-04-06T00:49:51.705Z,34.67
2019-04-06T00:52:20.219Z,42.13
2019-04-06T00:54:48.653Z,35.92
2019-04-06T00:57:17.110Z,40.67
2019-04-06T00:59:45.523Z,41.15
2019-04-06T01:02:14.138Z,40.30
2019-04-06T01:04:42.709Z,37.30
2019-04-06T01:07:11.174Z,36.95
2019-04-06T01:09:39.900Z,40.65
2019-04-06T01:12:08.312Z,39.60
2019-04-06T01:14:36.737Z,37.25
2019-04-06T01:17:05.165Z,36.60
2019-04-06T01:19:33.586Z,40.15
2019-04-06T01:22:02.066Z,40.48
2019-04-06T01:24:30.524Z,36.15
2019-04-06T01:26:58.921Z,36.40
2019-04-06T01:29:27.430Z,40.55
2019-04-06T01:31:56.206Z,42.15
2019-04-06T01:34:24.689Z,39.73
2019-04-06T01:36:53.122Z,42.48
2019-04-06T01:39:21.850Z,41.92
2019-04-06T01:41:50.280Z,38.40
2019-04-06T01:44:18.780Z,40.35
2019-04-06T01:46:47.244Z,41.23
2019-04-06T01:49:15.653Z,41.55
2019-04-06T01:51:44.064Z,39.92
2019-04-06T01:54:12.482Z,43.30
2019-04-06T01:56:40.940Z,40.28
2019-04-06T01:59:09.349Z,41.90
2019-04-06T02:01:48.265Z,35.33
2019-04-06T02:04:16.834Z,40.25
2019-04-06T02:06:45.400Z,44.38
2019-04-06T02:09:13.833Z,37.55
2019-04-06T02:11:42.256Z,43.08
2019-04-06T02:14:10.755Z,36.28
2019-04-06T02:16:39.197Z,35.80
2019-04-06T02:19:07.697Z,37.65
2019-04-06T02:21:36.169Z,38.58
2019-04-06T02:24:04.601Z,34.48
2019-04-06T02:26:33.031Z,33.88
2019-04-06T02:29:01.501Z,40.90
2019-04-06T02:31:40.303Z,37.83
2019-04-06T02:34:10.462Z,35.98
2019-04-06T02:36:52.801Z,36.42
2019-04-06T02:39:39.005Z,47.93
2019-04-06T02:42:09.076Z,65.62
2019-04-06T02:44:37.521Z,37.78
2019-04-06T02:47:05.986Z,39.13
2019-04-06T02:49:34.488Z,36.75
2019-04-06T02:52:03.332Z,43.60
2019-04-06T02:54:31.811Z,36.77
2019-04-06T02:57:00.932Z,33.90
2019-04-06T02:59:29.456Z,33.80
2019-04-06T03:01:57.943Z,37.45
2019-04-06T03:04:26.597Z,32.58
2019-04-06T03:06:55.087Z,37.48
2019-04-06T03:09:23.508Z,45.95
2019-04-06T03:11:52.053Z,38.92
2019-04-06T03:14:20.500Z,37.83
2019-04-06T03:16:48.989Z,40.80
2019-04-06T03:19:17.659Z,33.40
2019-04-06T03:21:46.185Z,34.08
2019-04-06T03:24:14.645Z,35.90
2019-04-06T03:26:43.067Z,38.05
2019-04-06T03:29:11.552Z,37.00
2019-04-06T03:31:40.269Z,38.60
2019-04-06T03:34:08.964Z,33.92
2019-04-06T03:36:37.385Z,38.30
2019-04-06T03:39:06.741Z,39.05
2019-04-06T03:41:35.193Z,39.50
2019-04-06T03:44:03.667Z,40.55
2019-04-06T03:46:32.099Z,34.43
2019-04-06T03:49:00.581Z,38.23
2019-04-06T03:51:29.012Z,38.67
2019-04-06T03:53:57.440Z,35.38
2019-04-06T03:56:25.933Z,41.15
2019-04-06T03:58:54.350Z,38.13
2019-04-06T04:01:22.754Z,38.08
2019-04-06T04:03:51.236Z,41.42
2019-04-06T04:06:19.682Z,38.33
2019-04-06T04:08:48.445Z,34.10
2019-04-06T04:11:16.854Z,32.83
2019-04-06T04:13:45.491Z,36.95
2019-04-06T04:16:14.310Z,34.25
2019-04-06T04:18:42.780Z,35.68
2019-04-06T04:21:11.204Z,38.23
2019-04-06T04:23:39.726Z,40.90
2019-04-06T04:26:08.139Z,34.55
2019-04-06T04:28:36.588Z,39.13
2019-04-06T04:31:05.096Z,43.85
2019-04-06T04:33:33.797Z,38.90
2019-04-06T04:36:02.489Z,37.95
2019-04-06T04:38:30.939Z,41.68
2019-04-06T04:40:59.372Z,38.35
2019-04-06T04:43:27.826Z,35.58
2019-04-06T04:45:56.431Z,39.10
2019-04-06T04:48:24.938Z,37.63
2019-04-06T04:50:53.353Z,37.83
2019-04-06T04:53:21.791Z,36.98
2019-04-06T04:55:50.193Z,35.45
2019-04-06T04:58:18.656Z,37.40
2019-04-06T05:00:47.077Z,34.10
2019-04-06T05:03:15.592Z,35.65
2019-04-06T05:05:44.028Z,38.80
2019-04-06T05:08:12.594Z,37.73
2019-04-06T05:10:41.061Z,39.38
2019-04-06T05:13:09.511Z,35.98
2019-04-06T05:15:46.973Z,39.27
2019-04-06T05:18:15.412Z,37.65
2019-04-06T05:20:43.929Z,41.68
2019-04-06T05:23:12.342Z,45.50
2019-04-06T05:25:40.757Z,44.70
2019-04-06T05:28:09.165Z,39.73
2019-04-06T05:30:37.607Z,40.95
2019-04-06T05:33:06.361Z,41.65
2019-04-06T05:35:35.329Z,41.23
2019-04-06T05:38:03.756Z,40.23
2019-04-06T05:40:32.325Z,36.75
2019-04-06T05:43:00.743Z,37.95
2019-04-06T05:45:29.231Z,37.20
2019-04-06T05:47:57.701Z,38.15
2019-04-06T05:50:26.266Z,42.40
2019-04-06T05:52:54.697Z,40.38
2019-04-06T05:55:24.456Z,39.60
2019-04-06T05:58:02.888Z,44.35
2019-04-06T06:00:23.534Z,42.65
2019-04-06T06:02:52.043Z,45.05
2019-04-06T06:05:20.488Z,39.13
2019-04-06T06:07:49.078Z,37.48
2019-04-06T06:10:17.560Z,44.93
2019-04-06T06:12:45.988Z,41.28
2019-04-06T06:15:14.585Z,43.83
2019-04-06T06:17:43.014Z,39.80
2019-04-06T06:20:11.793Z,46.83
2019-04-06T06:22:40.638Z,43.05
2019-04-06T06:25:09.755Z,36.13
2019-04-06T06:27:38.353Z,39.83
2019-04-06T06:30:08.093Z,41.58
2019-04-06T06:32:36.559Z,40.20
2019-04-06T06:35:05.962Z,41.25
2019-04-06T06:37:34.381Z,37.85
2019-04-06T06:40:03.377Z,40.08
2019-04-06T06:42:31.993Z,43.78
2019-04-06T06:45:00.425Z,43.83
2019-04-06T06:47:29.069Z,42.13
2019-04-06T06:49:57.575Z,49.45
2019-04-06T06:52:26.014Z,40.95
2019-04-06T06:54:54.446Z,39.03
2019-04-06T06:57:22.850Z,39.42
2019-04-06T06:59:51.265Z,39.88
2019-04-06T07:02:19.805Z,39.90
2019-04-06T07:04:48.258Z,41.00
2019-04-06T07:07:16.717Z,39.95
2019-04-06T07:09:45.198Z,45.58
2019-04-06T07:12:13.633Z,38.83
2019-04-06T07:14:42.152Z,43.23
2019-04-06T07:17:10.610Z,45.10
2019-04-06T07:19:39.031Z,39.10
2019-04-06T07:22:07.623Z,36.88
2019-04-06T07:24:36.100Z,39.70
2019-04-06T07:27:04.844Z,39.13
2019-04-06T07:29:33.258Z,37.50
2019-04-06T07:32:01.757Z,41.00
2019-04-06T07:34:30.528Z,37.73
2019-04-06T07:36:58.985Z,38.55
2019-04-06T07:39:27.402Z,39.23
2019-04-06T07:41:55.870Z,38.97
2019-04-06T07:44:24.372Z,38.65
2019-04-06T07:46:52.978Z,41.97
2019-04-06T07:49:21.373Z,40.40
2019-04-06T07:51:49.877Z,42.20
2019-04-06T07:54:18.590Z,43.00
2019-04-06T07:56:47.064Z,37.40
2019-04-06T07:59:15.960Z,44.00
2019-04-06T08:01:44.498Z,38.23
2019-04-06T08:04:13.493Z,39.80
2019-04-06T08:06:42.048Z,42.10
2019-04-06T08:09:10.575Z,36.40
2019-04-06T08:11:39.074Z,39.20
2019-04-06T08:14:07.517Z,43.23
2019-04-06T08:16:35.939Z,42.70
2019-04-06T08:19:04.638Z,36.87
2019-04-06T08:21:33.093Z,38.50
2019-04-06T08:24:01.530Z,41.50
2019-04-06T08:26:29.988Z,44.57
2019-04-06T08:29:01.445Z,44.67
2019-04-06T08:31:28.895Z,42.17
2019-04-06T08:33:57.347Z,39.80
2019-04-06T08:36:25.908Z,46.37
2019-04-06T08:38:54.514Z,45.50
2019-04-06T08:41:23.087Z,41.27
2019-04-06T08:43:51.920Z,36.27
2019-04-06T08:46:20.377Z,40.40
2019-04-06T08:48:48.830Z,34.07
2019-04-06T08:51:17.684Z,35.40
2019-04-06T08:53:46.201Z,29.67
2019-04-06T08:56:14.609Z,39.43
2019-04-06T08:58:43.052Z,36.73
2019-04-06T09:01:11.508Z,28.60
2019-04-06T09:03:40.399Z,26.00
2019-04-06T09:06:09.284Z,31.37
2019-04-06T09:08:37.797Z,31.43
2019-04-06T09:11:06.243Z,28.50
2019-04-06T09:13:35.051Z,27.80
2019-04-06T09:16:04.006Z,28.80
2019-04-06T09:18:32.737Z,30.33
2019-04-06T09:21:01.734Z,31.50
2019-04-06T09:23:30.400Z,29.10
2019-04-06T09:25:58.893Z,30.40
2019-04-06T09:28:27.396Z,29.97
2019-04-06T09:30:55.844Z,32.10
2019-04-06T09:33:24.333Z,34.53
2019-04-06T09:35:54.081Z,28.17
2019-04-06T09:38:22.509Z,28.60
2019-04-06T09:40:51.057Z,30.07
2019-04-06T09:43:19.526Z,29.40
2019-04-06T09:45:49.646Z,35.03
2019-04-06T09:48:22.163Z,30.40
2019-04-06T09:51:08.463Z,29.63
2019-04-06T09:53:38.545Z,31.20
2019-04-06T09:56:09.032Z,29.20
2019-04-06T09:58:39.458Z,31.90
2019-04-06T10:01:09.588Z,21.93
2019-04-06T10:03:56.020Z,28.50
2019-04-06T10:06:42.596Z,34.63
2019-04-06T10:09:12.778Z,30.83
2019-04-06T10:11:45.710Z,31.27
2019-04-06T10:14:16.150Z,33.27
2019-04-06T10:16:58.354Z,31.67
2019-04-06T10:19:44.857Z,30.43
2019-04-06T10:22:20.779Z,31.40
2019-04-06T10:24:59.663Z,34.57
2019-04-06T10:27:29.721Z,33.80
2019-04-06T10:30:18.076Z,34.20
2019-04-06T10:32:50.969Z,33.90
2019-04-06T10:35:37.035Z,33.73
2019-04-06T10:38:10.191Z,24.73
2019-04-06T10:40:42.969Z,32.97
2019-04-06T10:43:16.352Z,26.60
2019-04-06T10:45:55.461Z,26.00
2019-04-06T10:48:25.781Z,28.53
2019-04-06T10:50:55.841Z,30.30
2019-04-06T10:53:28.349Z,26.70
2019-04-06T10:55:58.398Z,26.30
2019-04-06T10:58:31.012Z,28.63
2019-04-06T11:01:03.841Z,27.87
2019-04-06T11:03:52.264Z,27.93
2019-04-06T11:06:34.972Z,23.10
2019-04-06T11:09:06.641Z,21.03
2019-04-06T11:11:48.854Z,19.40
2019-04-06T11:14:33.601Z,28.47
2019-04-06T11:17:06.085Z,25.20
2019-04-06T11:19:51.662Z,18.80
2019-04-06T11:22:24.589Z,19.40
2019-04-06T11:24:54.885Z,17.40
2019-04-06T11:27:41.566Z,19.00
2019-04-06T11:30:15.371Z,22.10
2019-04-06T11:32:48.325Z,26.37
2019-04-06T11:35:34.877Z,20.77
2019-04-06T11:38:17.150Z,18.93
2019-04-06T11:40:47.579Z,17.50
2019-04-06T11:43:17.774Z,18.07
2019-04-06T11:45:54.246Z,18.97
2019-04-06T11:48:30.555Z,18.53
2019-04-06T11:51:19.671Z,17.27
2019-04-06T11:53:49.956Z,16.00
2019-04-06T11:56:20.130Z,19.67
2019-04-06T11:58:53.537Z,19.57
2019-04-06T12:01:24.008Z,17.00
2019-04-06T12:03:54.057Z,21.37
2019-04-06T12:06:26.665Z,16.90
2019-04-06T12:08:56.733Z,18.63
2019-04-06T12:11:29.585Z,21.53
2019-04-06T12:14:02.126Z,27.80
2019-04-06T12:16:47.250Z,27.40
2019-04-06T12:19:19.997Z,19.37
2019-04-06T12:21:50.093Z,25.67
2019-04-06T12:24:32.195Z,18.67
2019-04-06T12:27:02.671Z,22.07
2019-04-06T12:29:49.553Z,21.10
2019-04-06T12:32:22.417Z,20.37
2019-04-06T12:35:01.282Z,20.83
2019-04-06T12:37:47.843Z,18.20
2019-04-06T12:40:53.733Z,20.90
2019-04-06T12:43:32.819Z,18.03
2019-04-06T12:46:03.530Z,18.10
2019-04-06T12:48:33.588Z,17.87
2019-04-06T12:51:04.118Z,16.90
2019-04-06T12:53:53.282Z,17.60
2019-04-06T12:56:41.630Z,21.00
2019-04-06T12:59:21.054Z,16.77
2019-04-06T13:02:08.162Z,18.17
2019-04-06T13:04:54.820Z,16.43
2019-04-06T13:07:30.803Z,17.53
2019-04-06T13:10:19.033Z,16.70
2019-04-06T13:13:05.658Z,17.10
2019-04-06T13:15:52.436Z,16.73
2019-04-06T13:18:31.437Z,14.90
2019-04-06T13:21:07.255Z,16.60
2019-04-06T13:23:46.356Z,14.13
2019-04-06T13:26:16.486Z,17.40
2019-04-06T13:28:46.778Z,14.83
2019-04-06T13:31:16.881Z,17.93
2019-04-06T13:33:49.938Z,16.73
2019-04-06T13:36:20.335Z,15.93
2019-04-06T13:38:53.449Z,17.10
2019-04-06T13:41:35.852Z,16.53
2019-04-06T13:44:18.245Z,14.83
2019-04-06T13:46:57.990Z,15.43
2019-04-06T13:49:34.446Z,13.77
2019-04-06T13:52:16.565Z,15.40
2019-04-06T13:55:03.250Z,15.97
2019-04-06T13:57:51.646Z,13.00
2019-04-06T14:00:27.921Z,13.50
2019-04-06T14:02:58.079Z,14.70
2019-04-06T14:05:28.438Z,14.80
2019-04-06T14:07:58.828Z,10.40
2019-04-06T14:10:45.384Z,14.70
2019-04-06T14:13:30.642Z,14.10
2019-04-06T14:16:13.197Z,13.63
2019-04-06T14:18:58.841Z,14.90
2019-04-06T14:21:31.492Z,15.50
2019-04-06T14:24:07.161Z,11.70
2019-04-06T14:26:48.831Z,13.77
2019-04-06T14:29:21.705Z,12.40
2019-04-06T14:32:08.272Z,13.93
2019-04-06T14:34:41.089Z,12.27
2019-04-06T14:37:16.998Z,13.40
2019-04-06T14:39:50.069Z,14.10
2019-04-06T14:42:32.107Z,13.30
2019-04-06T14:45:02.364Z,13.43
2019-04-06T14:47:36.012Z,11.60
2019-04-06T14:50:24.140Z,13.67
2019-04-06T14:52:57.452Z,10.90
2019-04-06T14:55:39.993Z,12.27
2019-04-06T14:58:10.270Z,11.23
2019-04-06T15:00:54.110Z,12.30
2019-04-06T15:03:27.038Z,9.70
2019-04-06T15:06:11.956Z,12.10
2019-04-06T15:08:42.307Z,11.67
2019-04-06T15:11:14.968Z,12.60
2019-04-06T15:13:54.232Z,12.97
2019-04-06T15:16:36.301Z,12.30
2019-04-06T15:19:09.401Z,13.33
2019-04-06T15:21:39.614Z,12.20
2019-04-06T15:24:12.671Z,11.67
2019-04-06T15:27:01.049Z,10.00
2019-04-06T15:29:37.225Z,11.47
2019-04-06T15:32:23.400Z,16.40
2019-04-06T15:35:09.836Z,12.57
2019-04-06T15:37:42.850Z,11.47
2019-04-06T15:40:16.690Z,12.47
2019-04-06T15:42:47.033Z,13.47
2019-04-06T15:45:22.957Z,9.87
2019-04-06T15:48:05.324Z,14.47
2019-04-06T15:50:35.562Z,8.90
2019-04-06T15:53:21.673Z,9.70
2019-04-06T15:56:09.721Z,11.33
2019-04-06T15:58:56.289Z,10.63
2019-04-06T16:01:42.984Z,10.00
2019-04-06T16:04:19.255Z,13.17
2019-04-06T16:07:05.719Z,9.47
2019-04-06T16:09:53.077Z,11.27
2019-04-06T16:12:29.314Z,9.50
2019-04-06T16:15:16.118Z,10.63
2019-04-06T16:17:49.181Z,10.93
2019-04-06T16:20:19.582Z,11.47
2019-04-06T16:22:55.679Z,10.03
2019-04-06T16:25:25.920Z,11.10
2019-04-06T16:27:59.045Z,9.03
2019-04-06T16:30:35.181Z,10.67
2019-04-06T16:33:05.303Z,10.20
2019-04-06T16:35:35.449Z,10.97
2019-04-06T16:38:17.737Z,13.63
2019-04-06T16:40:51.134Z,10.90
2019-04-06T16:43:27.161Z,12.60
2019-04-06T16:46:02.430Z,13.00
2019-04-06T16:48:38.151Z,10.27
2019-04-06T16:51:14.114Z,10.70
2019-04-06T16:53:56.143Z,10.40
2019-04-06T16:56:26.254Z,11.70
2019-04-06T16:59:05.102Z,11.37
2019-04-06T17:01:41.278Z,10.10
2019-04-06T17:04:11.372Z,10.40
2019-04-06T17:06:41.726Z,11.07
2019-04-06T17:09:17.765Z,11.63
2019-04-06T17:11:53.636Z,14.00
2019-04-06T17:14:39.960Z,12.50
2019-04-06T17:17:22.117Z,7.97
2019-04-06T17:19:52.378Z,8.47
2019-04-06T17:22:25.257Z,11.07
2019-04-06T17:25:12.266Z,13.47
2019-04-06T17:27:54.873Z,10.23
2019-04-06T17:30:27.649Z,13.20
2019-04-06T17:32:58.128Z,10.27
2019-04-06T17:35:31.153Z,33.83
2019-04-06T17:38:01.397Z,14.63
2019-04-06T17:40:47.043Z,9.37
2019-04-06T17:43:17.166Z,10.37
2019-04-06T17:45:56.024Z,10.23
2019-04-06T17:48:32.191Z,9.90
2019-04-06T17:51:11.235Z,11.03
2019-04-06T17:53:59.655Z,22.53
2019-04-06T17:56:38.808Z,10.03
2019-04-06T17:59:08.943Z,9.80
2019-04-06T18:01:39.091Z,12.60
2019-04-06T18:04:09.417Z,11.30
2019-04-06T18:06:39.730Z,11.57
2019-04-06T18:09:13.514Z,9.93
2019-04-06T18:11:49.842Z,14.77
2019-04-06T18:14:18.952Z,10.97
2019-04-06T18:16:47.477Z,11.03
2019-04-06T18:19:15.911Z,9.87
2019-04-06T18:21:44.711Z,10.03
2019-04-06T18:24:13.159Z,11.07
2019-04-06T18:26:41.575Z,10.50
2019-04-06T18:29:09.997Z,10.03
2019-04-06T18:31:51.918Z,17.80
2019-04-06T18:34:20.365Z,11.77
2019-04-06T18:36:53.468Z,9.67
2019-04-06T18:39:23.634Z,9.57
2019-04-06T18:41:52.085Z,22.90
2019-04-06T18:44:20.780Z,12.10
2019-04-06T18:46:49.392Z,11.20
2019-04-06T18:49:18.157Z,12.93
2019-04-06T18:51:46.749Z,12.07
2019-04-06T18:54:15.497Z,14.83
2019-04-06T18:56:44.000Z,12.00
2019-04-06T18:59:12.944Z,12.47
2019-04-06T19:01:41.482Z,11.63
2019-04-06T19:04:10.396Z,11.13
2019-04-06T19:06:38.917Z,15.40
2019-04-06T19:09:20.783Z,10.90
2019-04-06T19:11:39.356Z,12.10
2019-04-06T19:14:07.883Z,12.30
2019-04-06T19:16:36.668Z,12.63
2019-04-06T19:19:05.687Z,11.67
2019-04-06T19:21:34.620Z,10.40
2019-04-06T19:24:03.167Z,15.50
2019-04-06T19:26:31.653Z,10.60
2019-04-06T19:29:00.508Z,13.60
2019-04-06T19:31:29.954Z,11.87
2019-04-06T19:33:58.867Z,12.00
2019-04-06T19:36:27.456Z,14.80
2019-04-06T19:38:56.397Z,15.10
2019-04-06T19:41:24.933Z,31.00
2019-04-06T19:43:53.420Z,15.93
2019-04-06T19:46:21.993Z,13.80
2019-04-06T19:48:50.594Z,15.40
2019-04-06T19:51:19.037Z,12.17
2019-04-06T19:53:48.265Z,11.63
2019-04-06T19:56:16.817Z,11.07
2019-04-06T19:58:45.243Z,11.37
2019-04-06T20:01:13.687Z,11.50
2019-04-06T20:03:42.443Z,16.70
2019-04-06T20:06:10.848Z,28.13
2019-04-06T20:08:39.730Z,11.97
2019-04-06T20:11:08.135Z,20.50
2019-04-06T20:13:36.567Z,13.60
2019-04-06T20:16:05.155Z,13.60
2019-04-06T20:18:33.681Z,15.40
2019-04-06T20:21:02.108Z,13.40
2019-04-06T20:23:30.519Z,14.53
2019-04-06T20:25:58.942Z,12.73
2019-04-06T20:28:27.751Z,13.00
2019-04-06T20:30:57.131Z,14.60
2019-04-06T20:33:25.803Z,13.33
2019-04-06T20:35:54.889Z,11.33
2019-04-06T20:38:23.511Z,14.00
2019-04-06T20:40:52.200Z,11.87
2019-04-06T20:43:21.337Z,12.13
2019-04-06T20:45:50.055Z,13.90
2019-04-06T20:48:18.588Z,10.87
2019-04-06T20:50:47.066Z,12.40
2019-04-06T20:53:15.555Z,15.00
2019-04-06T20:55:43.971Z,12.80
2019-04-06T20:58:12.423Z,14.17
2019-04-06T21:00:41.524Z,14.90
2019-04-06T21:03:10.071Z,13.97
2019-04-06T21:05:38.556Z,12.83
2019-04-06T21:08:07.057Z,14.17
2019-04-06T21:10:36.210Z,12.17
2019-04-06T21:13:05.395Z,12.50
2019-04-06T21:15:34.139Z,9.87
2019-04-06T21:18:02.577Z,15.37
2019-04-06T21:20:31.457Z,19.30
2019-04-06T21:23:00.125Z,14.03
2019-04-06T21:25:28.710Z,9.43
2019-04-06T21:27:57.151Z,30.83
2019-04-06T21:30:25.743Z,11.60
2019-04-06T21:32:54.781Z,8.07
2019-04-06T21:35:23.575Z,8.73
2019-04-06T21:37:52.846Z,10.20
2019-04-06T21:40:21.488Z,13.80
2019-04-06T21:42:50.044Z,11.13
2019-04-06T21:45:18.549Z,14.87
2019-04-06T21:47:47.820Z,13.40
2019-04-06T21:50:17.213Z,10.17
2019-04-06T21:52:46.200Z,20.70
2019-04-06T21:55:15.022Z,7.23
2019-04-06T21:57:43.594Z,21.30
2019-04-06T22:00:14.197Z,7.50
2019-04-06T22:02:42.658Z,44.50
2019-04-06T22:05:11.520Z,6.47
2019-04-06T22:07:48.096Z,6.10
2019-04-06T22:10:10.606Z,91.43
2019-04-06T22:12:39.900Z,5.10
2019-04-06T22:15:09.949Z,6.50
2019-04-06T22:17:38.383Z,6.80
2019-04-06T22:20:07.434Z,5.60
2019-04-06T22:22:36.038Z,5.70
2019-04-06T22:25:05.772Z,4.50
2019-04-06T22:27:34.590Z,5.23
2019-04-06T22:30:06.051Z,6.33
2019-04-06T22:32:34.470Z,4.70
2019-04-06T22:35:03.525Z,5.77
2019-04-06T22:37:32.628Z,5.17
2019-04-06T22:40:02.255Z,5.60
2019-04-06T22:42:30.941Z,6.60
2019-04-06T22:44:59.401Z,5.40
2019-04-06T22:47:27.825Z,6.93
2019-04-06T22:49:56.256Z,5.08
2019-04-06T22:52:25.113Z,5.20
2019-04-06T22:54:54.153Z,5.30
2019-04-06T22:57:22.660Z,5.50
2019-04-06T22:59:51.069Z,6.20
2019-04-06T23:02:19.566Z,7.13
2019-04-06T23:04:52.497Z,5.30
2019-04-06T23:07:22.655Z,5.40
2019-04-06T23:09:51.101Z,5.37
2019-04-06T23:12:20.377Z,5.42
2019-04-06T23:14:48.951Z,6.07
2019-04-06T23:17:18.007Z,4.93
2019-04-06T23:19:46.888Z,4.20
2019-04-06T23:22:15.845Z,4.37
2019-04-06T23:24:44.365Z,5.10
2019-04-06T23:27:12.809Z,4.97
2019-04-06T23:29:41.792Z,4.80
2019-04-06T23:32:10.518Z,3.77
2019-04-06T23:34:38.955Z,4.80
2019-04-06T23:37:07.440Z,5.00
2019-04-06T23:39:35.874Z,4.40
2019-04-06T23:42:04.619Z,6.07
2019-04-06T23:44:33.142Z,13.80
2019-04-06T23:47:02.038Z,11.50
2019-04-06T23:49:30.591Z,7.30
2019-04-06T23:51:59.056Z,5.75
2019-04-06T23:54:27.567Z,7.30
2019-04-06T23:56:56.004Z,6.10
2019-04-06T23:59:24.421Z,5.37
